sensor_id;sensor_type;location;lat;lon;timestamp;P1;durP1;ratioP1;P2;durP2;ratioP2
80175;SDS011;75462;42.122;24.736;2024-02-26T00:01:55;0.30;;;0.30;;
80175;SDS011;75462;42.122;24.736;2024-02-26T00:04:21;0.30;;;0.30;;
80175;SDS011;75462;42.122;24.736;2024-02-26T00:06:47;0.30;;;0.30;;
80175;SDS011;75462;42.122;24.736;2024-02-26T00:09:15;0.30;;;0.30;;
80175;SDS011;75462;42.122;24.736;2024-02-26T00:11:41;0.30;;;0.30;;
80175;SDS011;75462;42.122;24.736;2024-02-26T00:14:06;0.30;;;0.30;;
80175;SDS011;75462;42.122;24.736;2024-02-26T00:16:32;0.30;;;0.30;;
80175;SDS011;75462;42.122;24.736;2024-02-26T00:18:58;0.30;;;0.30;;
80175;SDS011;75462;42.122;24.736;2024-02-26T00:21:24;0.30;;;0.30;;
80175;SDS011;75462;42.122;24.736;2024-02-26T00:23:49;0.30;;;0.30;;
80175;SDS011;75462;42.122;24.736;2024-02-26T00:26:18;0.30;;;0.30;;
80175;SDS011;75462;42.122;24.736;2024-02-26T00:28:43;0.30;;;0.30;;
80175;SDS011;75462;42.122;24.736;2024-02-26T00:31:09;0.30;;;0.30;;
80175;SDS011;75462;42.122;24.736;2024-02-26T00:33:35;0.30;;;0.30;;
80175;SDS011;75462;42.122;24.736;2024-02-26T00:36:01;0.30;;;0.30;;
80175;SDS011;75462;42.122;24.736;2024-02-26T00:38:27;0.30;;;0.30;;
80175;SDS011;75462;42.122;24.736;2024-02-26T00:40:52;0.30;;;0.30;;
80175;SDS011;75462;42.122;24.736;2024-02-26T00:43:18;0.20;;;0.20;;
80175;SDS011;75462;42.122;24.736;2024-02-26T00:45:44;0.30;;;0.30;;
80175;SDS011;75462;42.122;24.736;2024-02-26T00:48:11;0.30;;;0.30;;
80175;SDS011;75462;42.122;24.736;2024-02-26T00:50:38;0.30;;;0.30;;
80175;SDS011;75462;42.122;24.736;2024-02-26T00:53:04;0.30;;;0.30;;
80175;SDS011;75462;42.122;24.736;2024-02-26T00:55:30;0.30;;;0.30;;
80175;SDS011;75462;42.122;24.736;2024-02-26T00:57:56;0.30;;;0.30;;
80175;SDS011;75462;42.122;24.736;2024-02-26T01:00:22;0.30;;;0.30;;
80175;SDS011;75462;42.122;24.736;2024-02-26T01:02:47;0.30;;;0.30;;
80175;SDS011;75462;42.122;24.736;2024-02-26T01:05:14;0.30;;;0.30;;
80175;SDS011;75462;42.122;24.736;2024-02-26T01:07:41;0.30;;;0.30;;
80175;SDS011;75462;42.122;24.736;2024-02-26T01:10:07;0.30;;;0.30;;
80175;SDS011;75462;42.122;24.736;2024-02-26T01:12:33;0.30;;;0.30;;
80175;SDS011;75462;42.122;24.736;2024-02-26T01:14:59;0.30;;;0.30;;
80175;SDS011;75462;42.122;24.736;2024-02-26T01:17:26;0.30;;;0.30;;
80175;SDS011;75462;42.122;24.736;2024-02-26T01:19:51;0.30;;;0.30;;
80175;SDS011;75462;42.122;24.736;2024-02-26T01:22:18;0.30;;;0.30;;
80175;SDS011;75462;42.122;24.736;2024-02-26T01:24:44;0.30;;;0.30;;
80175;SDS011;75462;42.122;24.736;2024-02-26T01:27:10;0.30;;;0.30;;
80175;SDS011;75462;42.122;24.736;2024-02-26T01:29:36;0.30;;;0.30;;
80175;SDS011;75462;42.122;24.736;2024-02-26T01:32:02;0.30;;;0.30;;
80175;SDS011;75462;42.122;24.736;2024-02-26T01:34:30;0.20;;;0.20;;
80175;SDS011;75462;42.122;24.736;2024-02-26T01:36:55;0.30;;;0.30;;
80175;SDS011;75462;42.122;24.736;2024-02-26T01:39:21;0.30;;;0.30;;
80175;SDS011;75462;42.122;24.736;2024-02-26T01:41:47;0.30;;;0.30;;
80175;SDS011;75462;42.122;24.736;2024-02-26T01:44:13;0.30;;;0.30;;
80175;SDS011;75462;42.122;24.736;2024-02-26T01:46:39;0.30;;;0.30;;
80175;SDS011;75462;42.122;24.736;2024-02-26T01:49:05;0.30;;;0.30;;
80175;SDS011;75462;42.122;24.736;2024-02-26T01:51:31;0.30;;;0.30;;
80175;SDS011;75462;42.122;24.736;2024-02-26T01:53:58;0.30;;;0.30;;
80175;SDS011;75462;42.122;24.736;2024-02-26T01:56:27;0.30;;;0.30;;
80175;SDS011;75462;42.122;24.736;2024-02-26T01:58:56;0.30;;;0.30;;
80175;SDS011;75462;42.122;24.736;2024-02-26T02:01:25;0.30;;;0.30;;
80175;SDS011;75462;42.122;24.736;2024-02-26T02:03:52;0.30;;;0.30;;
80175;SDS011;75462;42.122;24.736;2024-02-26T02:06:18;0.30;;;0.30;;
80175;SDS011;75462;42.122;24.736;2024-02-26T02:08:44;0.30;;;0.30;;
80175;SDS011;75462;42.122;24.736;2024-02-26T02:11:10;0.40;;;0.40;;
80175;SDS011;75462;42.122;24.736;2024-02-26T02:13:36;0.30;;;0.30;;
80175;SDS011;75462;42.122;24.736;2024-02-26T02:16:03;0.30;;;0.30;;
80175;SDS011;75462;42.122;24.736;2024-02-26T02:18:29;0.30;;;0.30;;
80175;SDS011;75462;42.122;24.736;2024-02-26T02:20:54;0.30;;;0.30;;
80175;SDS011;75462;42.122;24.736;2024-02-26T02:23:21;0.40;;;0.40;;
80175;SDS011;75462;42.122;24.736;2024-02-26T02:25:47;0.28;;;0.28;;
80175;SDS011;75462;42.122;24.736;2024-02-26T02:28:13;0.30;;;0.30;;
80175;SDS011;75462;42.122;24.736;2024-02-26T02:30:39;0.30;;;0.30;;
80175;SDS011;75462;42.122;24.736;2024-02-26T02:33:05;0.30;;;0.30;;
80175;SDS011;75462;42.122;24.736;2024-02-26T02:35:31;0.30;;;0.30;;
80175;SDS011;75462;42.122;24.736;2024-02-26T02:37:57;0.30;;;0.30;;
80175;SDS011;75462;42.122;24.736;2024-02-26T02:40:23;0.30;;;0.30;;
80175;SDS011;75462;42.122;24.736;2024-02-26T02:42:49;0.30;;;0.30;;
80175;SDS011;75462;42.122;24.736;2024-02-26T02:45:14;0.30;;;0.30;;
80175;SDS011;75462;42.122;24.736;2024-02-26T02:47:40;0.30;;;0.30;;
80175;SDS011;75462;42.122;24.736;2024-02-26T02:50:06;0.30;;;0.30;;
80175;SDS011;75462;42.122;24.736;2024-02-26T02:52:32;0.30;;;0.30;;
80175;SDS011;75462;42.122;24.736;2024-02-26T02:54:58;0.30;;;0.30;;
80175;SDS011;75462;42.122;24.736;2024-02-26T02:57:23;0.30;;;0.30;;
80175;SDS011;75462;42.122;24.736;2024-02-26T02:59:49;0.30;;;0.30;;
80175;SDS011;75462;42.122;24.736;2024-02-26T03:02:16;0.30;;;0.30;;
80175;SDS011;75462;42.122;24.736;2024-02-26T03:04:41;0.30;;;0.30;;
80175;SDS011;75462;42.122;24.736;2024-02-26T03:07:08;0.30;;;0.30;;
80175;SDS011;75462;42.122;24.736;2024-02-26T03:09:34;0.30;;;0.30;;
80175;SDS011;75462;42.122;24.736;2024-02-26T03:11:59;0.30;;;0.30;;
80175;SDS011;75462;42.122;24.736;2024-02-26T03:14:25;0.30;;;0.30;;
80175;SDS011;75462;42.122;24.736;2024-02-26T03:16:54;0.30;;;0.30;;
80175;SDS011;75462;42.122;24.736;2024-02-26T03:19:20;0.30;;;0.30;;
80175;SDS011;75462;42.122;24.736;2024-02-26T03:21:46;0.30;;;0.30;;
80175;SDS011;75462;42.122;24.736;2024-02-26T03:24:11;0.30;;;0.30;;
80175;SDS011;75462;42.122;24.736;2024-02-26T03:26:37;0.30;;;0.30;;
80175;SDS011;75462;42.122;24.736;2024-02-26T03:29:03;0.30;;;0.30;;
80175;SDS011;75462;42.122;24.736;2024-02-26T03:31:29;0.30;;;0.30;;
80175;SDS011;75462;42.122;24.736;2024-02-26T03:33:55;0.30;;;0.30;;
80175;SDS011;75462;42.122;24.736;2024-02-26T03:36:21;0.30;;;0.30;;
80175;SDS011;75462;42.122;24.736;2024-02-26T03:38:47;0.30;;;0.30;;
80175;SDS011;75462;42.122;24.736;2024-02-26T03:41:13;0.30;;;0.30;;
80175;SDS011;75462;42.122;24.736;2024-02-26T03:43:39;0.30;;;0.30;;
80175;SDS011;75462;42.122;24.736;2024-02-26T03:46:08;0.30;;;0.30;;
80175;SDS011;75462;42.122;24.736;2024-02-26T03:48:36;0.30;;;0.30;;
80175;SDS011;75462;42.122;24.736;2024-02-26T03:51:02;0.30;;;0.30;;
80175;SDS011;75462;42.122;24.736;2024-02-26T03:53:28;0.30;;;0.30;;
80175;SDS011;75462;42.122;24.736;2024-02-26T03:55:54;0.30;;;0.30;;
80175;SDS011;75462;42.122;24.736;2024-02-26T03:58:20;0.30;;;0.30;;
80175;SDS011;75462;42.122;24.736;2024-02-26T04:00:46;0.40;;;0.40;;
80175;SDS011;75462;42.122;24.736;2024-02-26T04:03:14;0.30;;;0.30;;
80175;SDS011;75462;42.122;24.736;2024-02-26T04:05:40;0.40;;;0.40;;
80175;SDS011;75462;42.122;24.736;2024-02-26T04:08:06;0.30;;;0.30;;
80175;SDS011;75462;42.122;24.736;2024-02-26T04:10:32;0.40;;;0.40;;
80175;SDS011;75462;42.122;24.736;2024-02-26T04:13:00;0.30;;;0.30;;
80175;SDS011;75462;42.122;24.736;2024-02-26T04:15:26;0.30;;;0.30;;
80175;SDS011;75462;42.122;24.736;2024-02-26T04:17:51;0.30;;;0.30;;
80175;SDS011;75462;42.122;24.736;2024-02-26T04:20:17;0.38;;;0.38;;
80175;SDS011;75462;42.122;24.736;2024-02-26T04:22:43;0.40;;;0.40;;
80175;SDS011;75462;42.122;24.736;2024-02-26T04:25:09;0.30;;;0.30;;
80175;SDS011;75462;42.122;24.736;2024-02-26T04:27:35;0.38;;;0.38;;
80175;SDS011;75462;42.122;24.736;2024-02-26T04:30:00;0.30;;;0.30;;
80175;SDS011;75462;42.122;24.736;2024-02-26T04:32:26;0.30;;;0.30;;
80175;SDS011;75462;42.122;24.736;2024-02-26T04:34:53;0.30;;;0.30;;
80175;SDS011;75462;42.122;24.736;2024-02-26T04:37:19;0.30;;;0.30;;
80175;SDS011;75462;42.122;24.736;2024-02-26T04:39:44;0.30;;;0.30;;
80175;SDS011;75462;42.122;24.736;2024-02-26T04:42:10;0.30;;;0.30;;
80175;SDS011;75462;42.122;24.736;2024-02-26T04:44:36;0.40;;;0.40;;
80175;SDS011;75462;42.122;24.736;2024-02-26T04:47:02;0.30;;;0.30;;
80175;SDS011;75462;42.122;24.736;2024-02-26T04:49:28;0.40;;;0.40;;
80175;SDS011;75462;42.122;24.736;2024-02-26T04:51:53;0.40;;;0.40;;
80175;SDS011;75462;42.122;24.736;2024-02-26T04:54:19;0.40;;;0.40;;
80175;SDS011;75462;42.122;24.736;2024-02-26T04:56:45;0.40;;;0.40;;
80175;SDS011;75462;42.122;24.736;2024-02-26T04:59:11;0.40;;;0.40;;
80175;SDS011;75462;42.122;24.736;2024-02-26T05:01:37;0.30;;;0.30;;
80175;SDS011;75462;42.122;24.736;2024-02-26T05:04:03;0.30;;;0.30;;
80175;SDS011;75462;42.122;24.736;2024-02-26T05:06:28;0.30;;;0.30;;
80175;SDS011;75462;42.122;24.736;2024-02-26T05:08:54;0.30;;;0.30;;
80175;SDS011;75462;42.122;24.736;2024-02-26T05:11:20;0.30;;;0.30;;
80175;SDS011;75462;42.122;24.736;2024-02-26T05:13:47;0.30;;;0.30;;
80175;SDS011;75462;42.122;24.736;2024-02-26T05:16:13;0.30;;;0.30;;
80175;SDS011;75462;42.122;24.736;2024-02-26T05:18:39;0.40;;;0.40;;
80175;SDS011;75462;42.122;24.736;2024-02-26T05:21:04;0.40;;;0.40;;
80175;SDS011;75462;42.122;24.736;2024-02-26T05:23:30;0.30;;;0.30;;
80175;SDS011;75462;42.122;24.736;2024-02-26T05:25:56;0.30;;;0.30;;
80175;SDS011;75462;42.122;24.736;2024-02-26T05:28:22;0.30;;;0.30;;
80175;SDS011;75462;42.122;24.736;2024-02-26T05:30:47;0.40;;;0.40;;
80175;SDS011;75462;42.122;24.736;2024-02-26T05:33:13;0.30;;;0.30;;
80175;SDS011;75462;42.122;24.736;2024-02-26T05:35:39;0.40;;;0.40;;
80175;SDS011;75462;42.122;24.736;2024-02-26T05:38:05;0.40;;;0.40;;
80175;SDS011;75462;42.122;24.736;2024-02-26T05:40:31;0.30;;;0.30;;
80175;SDS011;75462;42.122;24.736;2024-02-26T05:42:56;0.40;;;0.40;;
80175;SDS011;75462;42.122;24.736;2024-02-26T05:45:22;0.30;;;0.30;;
80175;SDS011;75462;42.122;24.736;2024-02-26T05:47:48;0.40;;;0.40;;
80175;SDS011;75462;42.122;24.736;2024-02-26T05:50:15;0.30;;;0.30;;
80175;SDS011;75462;42.122;24.736;2024-02-26T05:52:41;0.30;;;0.30;;
80175;SDS011;75462;42.122;24.736;2024-02-26T05:55:07;0.30;;;0.30;;
80175;SDS011;75462;42.122;24.736;2024-02-26T05:57:33;0.30;;;0.30;;
80175;SDS011;75462;42.122;24.736;2024-02-26T05:59:59;0.30;;;0.30;;
80175;SDS011;75462;42.122;24.736;2024-02-26T06:02:29;0.30;;;0.30;;
80175;SDS011;75462;42.122;24.736;2024-02-26T06:04:55;0.30;;;0.30;;
80175;SDS011;75462;42.122;24.736;2024-02-26T06:07:21;0.30;;;0.30;;
80175;SDS011;75462;42.122;24.736;2024-02-26T06:09:47;0.40;;;0.40;;
80175;SDS011;75462;42.122;24.736;2024-02-26T06:12:13;0.30;;;0.30;;
80175;SDS011;75462;42.122;24.736;2024-02-26T06:14:39;0.30;;;0.30;;
80175;SDS011;75462;42.122;24.736;2024-02-26T06:17:05;0.30;;;0.30;;
80175;SDS011;75462;42.122;24.736;2024-02-26T06:19:32;0.40;;;0.40;;
80175;SDS011;75462;42.122;24.736;2024-02-26T06:21:57;0.30;;;0.30;;
80175;SDS011;75462;42.122;24.736;2024-02-26T06:24:23;0.38;;;0.38;;
80175;SDS011;75462;42.122;24.736;2024-02-26T06:26:49;0.40;;;0.40;;
80175;SDS011;75462;42.122;24.736;2024-02-26T06:29:15;0.30;;;0.30;;
80175;SDS011;75462;42.122;24.736;2024-02-26T06:31:40;0.30;;;0.30;;
80175;SDS011;75462;42.122;24.736;2024-02-26T06:34:06;0.30;;;0.30;;
80175;SDS011;75462;42.122;24.736;2024-02-26T06:36:32;0.28;;;0.28;;
80175;SDS011;75462;42.122;24.736;2024-02-26T06:38:58;0.30;;;0.30;;
80175;SDS011;75462;42.122;24.736;2024-02-26T06:41:23;0.30;;;0.30;;
80175;SDS011;75462;42.122;24.736;2024-02-26T06:43:54;0.30;;;0.30;;
80175;SDS011;75462;42.122;24.736;2024-02-26T06:46:20;0.30;;;0.30;;
80175;SDS011;75462;42.122;24.736;2024-02-26T06:48:50;0.30;;;0.30;;
80175;SDS011;75462;42.122;24.736;2024-02-26T06:51:16;0.30;;;0.30;;
80175;SDS011;75462;42.122;24.736;2024-02-26T06:53:41;0.30;;;0.30;;
80175;SDS011;75462;42.122;24.736;2024-02-26T06:56:07;0.30;;;0.30;;
80175;SDS011;75462;42.122;24.736;2024-02-26T06:58:33;0.30;;;0.30;;
80175;SDS011;75462;42.122;24.736;2024-02-26T07:00:59;0.30;;;0.30;;
80175;SDS011;75462;42.122;24.736;2024-02-26T07:03:24;0.30;;;0.30;;
80175;SDS011;75462;42.122;24.736;2024-02-26T07:05:51;0.30;;;0.30;;
80175;SDS011;75462;42.122;24.736;2024-02-26T07:08:17;0.30;;;0.30;;
80175;SDS011;75462;42.122;24.736;2024-02-26T07:10:43;0.30;;;0.30;;
80175;SDS011;75462;42.122;24.736;2024-02-26T07:13:09;0.30;;;0.30;;
80175;SDS011;75462;42.122;24.736;2024-02-26T07:15:35;0.30;;;0.30;;
80175;SDS011;75462;42.122;24.736;2024-02-26T07:18:00;0.30;;;0.30;;
80175;SDS011;75462;42.122;24.736;2024-02-26T07:20:29;0.30;;;0.30;;
80175;SDS011;75462;42.122;24.736;2024-02-26T07:22:55;0.32;;;0.32;;
80175;SDS011;75462;42.122;24.736;2024-02-26T07:25:21;0.30;;;0.30;;
80175;SDS011;75462;42.122;24.736;2024-02-26T07:27:48;0.30;;;0.30;;
80175;SDS011;75462;42.122;24.736;2024-02-26T07:30:13;0.30;;;0.30;;
80175;SDS011;75462;42.122;24.736;2024-02-26T07:32:40;0.30;;;0.30;;
80175;SDS011;75462;42.122;24.736;2024-02-26T07:35:05;0.30;;;0.30;;
80175;SDS011;75462;42.122;24.736;2024-02-26T07:37:31;0.30;;;0.30;;
80175;SDS011;75462;42.122;24.736;2024-02-26T07:39:57;0.30;;;0.30;;
80175;SDS011;75462;42.122;24.736;2024-02-26T07:42:23;0.30;;;0.30;;
80175;SDS011;75462;42.122;24.736;2024-02-26T07:44:48;0.30;;;0.30;;
80175;SDS011;75462;42.122;24.736;2024-02-26T07:47:14;0.40;;;0.40;;
80175;SDS011;75462;42.122;24.736;2024-02-26T07:49:40;0.30;;;0.30;;
80175;SDS011;75462;42.122;24.736;2024-02-26T07:52:06;0.30;;;0.30;;
80175;SDS011;75462;42.122;24.736;2024-02-26T07:54:32;0.30;;;0.30;;
80175;SDS011;75462;42.122;24.736;2024-02-26T07:56:58;0.40;;;0.40;;
80175;SDS011;75462;42.122;24.736;2024-02-26T07:59:23;0.30;;;0.30;;
80175;SDS011;75462;42.122;24.736;2024-02-26T08:01:52;0.30;;;0.30;;
80175;SDS011;75462;42.122;24.736;2024-02-26T08:04:18;0.30;;;0.30;;
80175;SDS011;75462;42.122;24.736;2024-02-26T08:06:43;0.30;;;0.30;;
80175;SDS011;75462;42.122;24.736;2024-02-26T08:09:09;0.30;;;0.30;;
80175;SDS011;75462;42.122;24.736;2024-02-26T08:11:35;0.30;;;0.30;;
80175;SDS011;75462;42.122;24.736;2024-02-26T08:14:00;0.30;;;0.30;;
80175;SDS011;75462;42.122;24.736;2024-02-26T08:16:26;0.30;;;0.30;;
80175;SDS011;75462;42.122;24.736;2024-02-26T08:18:52;0.20;;;0.20;;
80175;SDS011;75462;42.122;24.736;2024-02-26T08:21:18;0.30;;;0.30;;
80175;SDS011;75462;42.122;24.736;2024-02-26T08:23:44;0.30;;;0.30;;
80175;SDS011;75462;42.122;24.736;2024-02-26T08:26:09;0.30;;;0.30;;
80175;SDS011;75462;42.122;24.736;2024-02-26T08:28:39;0.20;;;0.20;;
80175;SDS011;75462;42.122;24.736;2024-02-26T08:31:05;0.20;;;0.20;;
80175;SDS011;75462;42.122;24.736;2024-02-26T08:33:31;0.30;;;0.30;;
80175;SDS011;75462;42.122;24.736;2024-02-26T08:35:59;0.20;;;0.20;;
80175;SDS011;75462;42.122;24.736;2024-02-26T08:38:29;0.30;;;0.30;;
80175;SDS011;75462;42.122;24.736;2024-02-26T08:40:54;0.30;;;0.30;;
80175;SDS011;75462;42.122;24.736;2024-02-26T08:43:20;0.30;;;0.30;;
80175;SDS011;75462;42.122;24.736;2024-02-26T08:45:46;0.30;;;0.30;;
80175;SDS011;75462;42.122;24.736;2024-02-26T08:48:12;0.20;;;0.20;;
80175;SDS011;75462;42.122;24.736;2024-02-26T08:50:37;0.30;;;0.30;;
80175;SDS011;75462;42.122;24.736;2024-02-26T08:53:03;0.20;;;0.20;;
80175;SDS011;75462;42.122;24.736;2024-02-26T08:55:29;0.30;;;0.30;;
80175;SDS011;75462;42.122;24.736;2024-02-26T08:57:55;0.20;;;0.20;;
80175;SDS011;75462;42.122;24.736;2024-02-26T09:00:20;0.30;;;0.30;;
80175;SDS011;75462;42.122;24.736;2024-02-26T09:02:49;0.20;;;0.20;;
80175;SDS011;75462;42.122;24.736;2024-02-26T09:05:15;0.20;;;0.20;;
80175;SDS011;75462;42.122;24.736;2024-02-26T09:07:41;0.30;;;0.30;;
80175;SDS011;75462;42.122;24.736;2024-02-26T09:10:07;0.20;;;0.20;;
80175;SDS011;75462;42.122;24.736;2024-02-26T09:12:35;0.20;;;0.20;;
80175;SDS011;75462;42.122;24.736;2024-02-26T09:15:02;0.20;;;0.20;;
80175;SDS011;75462;42.122;24.736;2024-02-26T09:17:28;0.20;;;0.20;;
80175;SDS011;75462;42.122;24.736;2024-02-26T09:19:54;0.20;;;0.20;;
80175;SDS011;75462;42.122;24.736;2024-02-26T09:22:19;0.20;;;0.20;;
80175;SDS011;75462;42.122;24.736;2024-02-26T09:24:45;0.20;;;0.20;;
80175;SDS011;75462;42.122;24.736;2024-02-26T09:27:11;0.20;;;0.20;;
80175;SDS011;75462;42.122;24.736;2024-02-26T09:29:37;0.20;;;0.20;;
80175;SDS011;75462;42.122;24.736;2024-02-26T09:32:03;0.20;;;0.20;;
80175;SDS011;75462;42.122;24.736;2024-02-26T09:34:29;0.20;;;0.20;;
80175;SDS011;75462;42.122;24.736;2024-02-26T09:36:54;0.20;;;0.20;;
80175;SDS011;75462;42.122;24.736;2024-02-26T09:39:20;0.20;;;0.20;;
80175;SDS011;75462;42.122;24.736;2024-02-26T09:41:47;0.20;;;0.20;;
80175;SDS011;75462;42.122;24.736;2024-02-26T09:44:18;0.20;;;0.20;;
80175;SDS011;75462;42.122;24.736;2024-02-26T09:46:48;0.20;;;0.20;;
80175;SDS011;75462;42.122;24.736;2024-02-26T09:49:17;0.20;;;0.20;;
80175;SDS011;75462;42.122;24.736;2024-02-26T09:51:44;0.20;;;0.20;;
80175;SDS011;75462;42.122;24.736;2024-02-26T09:54:12;0.20;;;0.20;;
80175;SDS011;75462;42.122;24.736;2024-02-26T09:56:39;0.20;;;0.20;;
80175;SDS011;75462;42.122;24.736;2024-02-26T09:59:10;0.20;;;0.20;;
80175;SDS011;75462;42.122;24.736;2024-02-26T10:01:40;0.30;;;0.30;;
80175;SDS011;75462;42.122;24.736;2024-02-26T10:04:07;0.20;;;0.20;;
80175;SDS011;75462;42.122;24.736;2024-02-26T10:06:35;0.20;;;0.20;;
80175;SDS011;75462;42.122;24.736;2024-02-26T10:09:02;0.20;;;0.20;;
80175;SDS011;75462;42.122;24.736;2024-02-26T10:11:31;0.20;;;0.20;;
80175;SDS011;75462;42.122;24.736;2024-02-26T10:13:57;0.10;;;0.10;;
80175;SDS011;75462;42.122;24.736;2024-02-26T10:16:23;0.10;;;0.10;;
80175;SDS011;75462;42.122;24.736;2024-02-26T10:18:50;0.20;;;0.20;;
80175;SDS011;75462;42.122;24.736;2024-02-26T10:21:19;0.20;;;0.20;;
80175;SDS011;75462;42.122;24.736;2024-02-26T10:23:45;0.20;;;0.20;;
80175;SDS011;75462;42.122;24.736;2024-02-26T10:26:12;0.20;;;0.20;;
80175;SDS011;75462;42.122;24.736;2024-02-26T10:28:41;0.20;;;0.20;;
80175;SDS011;75462;42.122;24.736;2024-02-26T10:31:07;0.20;;;0.20;;
80175;SDS011;75462;42.122;24.736;2024-02-26T10:33:34;0.20;;;0.20;;
80175;SDS011;75462;42.122;24.736;2024-02-26T10:36:02;0.10;;;0.10;;
80175;SDS011;75462;42.122;24.736;2024-02-26T10:38:29;0.20;;;0.20;;
80175;SDS011;75462;42.122;24.736;2024-02-26T10:40:56;0.17;;;0.17;;
80175;SDS011;75462;42.122;24.736;2024-02-26T10:43:22;0.20;;;0.20;;
80175;SDS011;75462;42.122;24.736;2024-02-26T10:45:48;0.10;;;0.10;;
80175;SDS011;75462;42.122;24.736;2024-02-26T10:48:14;0.20;;;0.20;;
80175;SDS011;75462;42.122;24.736;2024-02-26T10:50:42;0.17;;;0.17;;
80175;SDS011;75462;42.122;24.736;2024-02-26T10:53:16;0.20;;;0.20;;
80175;SDS011;75462;42.122;24.736;2024-02-26T10:55:46;0.20;;;0.20;;
80175;SDS011;75462;42.122;24.736;2024-02-26T10:58:24;0.10;;;0.10;;
80175;SDS011;75462;42.122;24.736;2024-02-26T11:00:50;0.20;;;0.20;;
80175;SDS011;75462;42.122;24.736;2024-02-26T11:03:17;0.20;;;0.20;;
80175;SDS011;75462;42.122;24.736;2024-02-26T11:06:04;0.10;;;0.10;;
80175;SDS011;75462;42.122;24.736;2024-02-26T11:08:30;0.10;;;0.10;;
80175;SDS011;75462;42.122;24.736;2024-02-26T11:10:57;0.10;;;0.10;;
80175;SDS011;75462;42.122;24.736;2024-02-26T11:13:23;0.10;;;0.10;;
80175;SDS011;75462;42.122;24.736;2024-02-26T11:15:55;0.10;;;0.10;;
80175;SDS011;75462;42.122;24.736;2024-02-26T11:18:25;0.10;;;0.10;;
80175;SDS011;75462;42.122;24.736;2024-02-26T11:20:54;0.10;;;0.10;;
80175;SDS011;75462;42.122;24.736;2024-02-26T11:23:22;0.10;;;0.10;;
80175;SDS011;75462;42.122;24.736;2024-02-26T11:25:52;0.10;;;0.10;;
80175;SDS011;75462;42.122;24.736;2024-02-26T11:28:23;0.10;;;0.10;;
80175;SDS011;75462;42.122;24.736;2024-02-26T11:30:53;0.20;;;0.20;;
80175;SDS011;75462;42.122;24.736;2024-02-26T11:33:22;0.20;;;0.20;;
80175;SDS011;75462;42.122;24.736;2024-02-26T11:35:49;0.20;;;0.20;;
80175;SDS011;75462;42.122;24.736;2024-02-26T11:38:21;0.15;;;0.15;;
80175;SDS011;75462;42.122;24.736;2024-02-26T11:40:53;0.10;;;0.10;;
80175;SDS011;75462;42.122;24.736;2024-02-26T11:48:55;0.20;;;0.20;;
80175;SDS011;75462;42.122;24.736;2024-02-26T11:51:32;0.10;;;0.10;;
80175;SDS011;75462;42.122;24.736;2024-02-26T11:53:59;0.10;;;0.10;;
80175;SDS011;75462;42.122;24.736;2024-02-26T11:56:25;0.20;;;0.20;;
80175;SDS011;75462;42.122;24.736;2024-02-26T11:59:02;0.20;;;0.20;;
80175;SDS011;75462;42.122;24.736;2024-02-26T12:01:47;0.10;;;0.10;;
80175;SDS011;75462;42.122;24.736;2024-02-26T12:04:21;0.10;;;0.10;;
80175;SDS011;75462;42.122;24.736;2024-02-26T12:07:00;0.10;;;0.10;;
80175;SDS011;75462;42.122;24.736;2024-02-26T12:09:33;0.20;;;0.20;;
80175;SDS011;75462;42.122;24.736;2024-02-26T12:12:01;0.20;;;0.20;;
80175;SDS011;75462;42.122;24.736;2024-02-26T12:14:29;0.20;;;0.20;;
80175;SDS011;75462;42.122;24.736;2024-02-26T12:16:55;0.10;;;0.10;;
80175;SDS011;75462;42.122;24.736;2024-02-26T12:19:22;0.10;;;0.10;;
80175;SDS011;75462;42.122;24.736;2024-02-26T12:21:51;0.10;;;0.10;;
80175;SDS011;75462;42.122;24.736;2024-02-26T12:24:21;0.20;;;0.20;;
80175;SDS011;75462;42.122;24.736;2024-02-26T12:26:47;0.20;;;0.20;;
80175;SDS011;75462;42.122;24.736;2024-02-26T12:29:12;0.10;;;0.10;;
80175;SDS011;75462;42.122;24.736;2024-02-26T12:31:39;0.10;;;0.10;;
80175;SDS011;75462;42.122;24.736;2024-02-26T12:34:06;0.10;;;0.10;;
80175;SDS011;75462;42.122;24.736;2024-02-26T12:36:44;0.10;;;0.10;;
80175;SDS011;75462;42.122;24.736;2024-02-26T12:39:20;0.10;;;0.10;;
80175;SDS011;75462;42.122;24.736;2024-02-26T12:41:46;0.10;;;0.10;;
80175;SDS011;75462;42.122;24.736;2024-02-26T12:44:16;0.10;;;0.10;;
80175;SDS011;75462;42.122;24.736;2024-02-26T12:46:42;0.10;;;0.10;;
80175;SDS011;75462;42.122;24.736;2024-02-26T12:49:08;0.20;;;0.20;;
80175;SDS011;75462;42.122;24.736;2024-02-26T12:51:39;0.20;;;0.20;;
80175;SDS011;75462;42.122;24.736;2024-02-26T12:54:06;0.10;;;0.10;;
80175;SDS011;75462;42.122;24.736;2024-02-26T12:56:34;0.10;;;0.10;;
80175;SDS011;75462;42.122;24.736;2024-02-26T12:59:00;0.00;;;0.00;;
80175;SDS011;75462;42.122;24.736;2024-02-26T13:01:27;0.10;;;0.10;;
80175;SDS011;75462;42.122;24.736;2024-02-26T13:03:53;0.10;;;0.10;;
80175;SDS011;75462;42.122;24.736;2024-02-26T13:06:19;0.10;;;0.10;;
80175;SDS011;75462;42.122;24.736;2024-02-26T13:08:46;0.10;;;0.10;;
80175;SDS011;75462;42.122;24.736;2024-02-26T13:11:13;0.10;;;0.10;;
80175;SDS011;75462;42.122;24.736;2024-02-26T13:13:39;0.10;;;0.10;;
80175;SDS011;75462;42.122;24.736;2024-02-26T13:16:05;0.10;;;0.10;;
80175;SDS011;75462;42.122;24.736;2024-02-26T13:18:33;0.10;;;0.10;;
80175;SDS011;75462;42.122;24.736;2024-02-26T13:21:07;0.10;;;0.10;;
80175;SDS011;75462;42.122;24.736;2024-02-26T13:23:40;0.20;;;0.20;;
80175;SDS011;75462;42.122;24.736;2024-02-26T13:26:06;0.10;;;0.10;;
80175;SDS011;75462;42.122;24.736;2024-02-26T13:28:33;0.10;;;0.10;;
80175;SDS011;75462;42.122;24.736;2024-02-26T13:30:59;0.10;;;0.10;;
80175;SDS011;75462;42.122;24.736;2024-02-26T13:33:26;0.10;;;0.10;;
80175;SDS011;75462;42.122;24.736;2024-02-26T13:35:54;0.20;;;0.20;;
80175;SDS011;75462;42.122;24.736;2024-02-26T13:38:21;0.10;;;0.10;;
80175;SDS011;75462;42.122;24.736;2024-02-26T13:40:47;0.10;;;0.10;;
80175;SDS011;75462;42.122;24.736;2024-02-26T13:43:13;0.10;;;0.10;;
80175;SDS011;75462;42.122;24.736;2024-02-26T13:45:39;0.20;;;0.20;;
80175;SDS011;75462;42.122;24.736;2024-02-26T13:48:05;0.10;;;0.10;;
80175;SDS011;75462;42.122;24.736;2024-02-26T13:50:32;0.10;;;0.10;;
80175;SDS011;75462;42.122;24.736;2024-02-26T13:52:58;0.10;;;0.10;;
80175;SDS011;75462;42.122;24.736;2024-02-26T13:55:27;0.10;;;0.10;;
80175;SDS011;75462;42.122;24.736;2024-02-26T13:57:55;0.10;;;0.10;;
80175;SDS011;75462;42.122;24.736;2024-02-26T14:00:22;0.10;;;0.10;;
80175;SDS011;75462;42.122;24.736;2024-02-26T14:02:48;0.10;;;0.10;;
80175;SDS011;75462;42.122;24.736;2024-02-26T14:05:13;0.20;;;0.20;;
80175;SDS011;75462;42.122;24.736;2024-02-26T14:07:39;0.10;;;0.10;;
80175;SDS011;75462;42.122;24.736;2024-02-26T14:10:06;0.10;;;0.10;;
80175;SDS011;75462;42.122;24.736;2024-02-26T14:12:32;0.10;;;0.10;;
80175;SDS011;75462;42.122;24.736;2024-02-26T14:14:58;0.20;;;0.20;;
80175;SDS011;75462;42.122;24.736;2024-02-26T14:17:25;0.10;;;0.10;;
80175;SDS011;75462;42.122;24.736;2024-02-26T14:19:51;0.10;;;0.10;;
80175;SDS011;75462;42.122;24.736;2024-02-26T14:22:17;0.10;;;0.10;;
80175;SDS011;75462;42.122;24.736;2024-02-26T14:24:43;0.20;;;0.20;;
80175;SDS011;75462;42.122;24.736;2024-02-26T14:27:10;0.10;;;0.10;;
80175;SDS011;75462;42.122;24.736;2024-02-26T14:29:43;0.10;;;0.10;;
80175;SDS011;75462;42.122;24.736;2024-02-26T14:32:09;0.10;;;0.10;;
80175;SDS011;75462;42.122;24.736;2024-02-26T14:34:35;0.10;;;0.10;;
80175;SDS011;75462;42.122;24.736;2024-02-26T14:37:01;0.10;;;0.10;;